Time;durP1;ratioP1;P1;durP2;ratioP2;P2;SDS_P1;SDS_P2;PMS_P1;PMS_P2;Temp;Humidity;BMP_temperature;BMP_pressure;BME280_temperature;BME280_humidity;BME280_pressure;Samples;Min_cycle;Max_cycle;Signal;HPM_P1;HPM_P2
2022/12/05 00:01:27;;;;;;;12.30;9.77;;;5.80;53.50;;;;;;20773;6839;123537;-76
2022/12/05 00:03:53;;;;;;;12.43;10.23;;;5.60;54.00;;;;;;20769;6839;118185;-75
2022/12/05 00:06:19;;;;;;;13.30;10.27;;;5.40;54.50;;;;;;20762;6839;118476;-76
2022/12/05 00:08:45;;;;;;;13.83;10.40;;;5.30;55.00;;;;;;20778;6839;120500;-76
2022/12/05 00:11:14;;;;;;;12.73;10.73;;;5.20;55.40;;;;;;20784;6839;120193;-75
2022/12/05 00:13:39;;;;;;;15.60;13.43;;;5.10;55.60;;;;;;20565;6839;277724;-75
2022/12/05 00:16:08;;;;;;;16.27;14.37;;;5.30;55.60;;;;;;20543;6839;277670;-76
2022/12/05 00:18:34;;;;;;;16.50;14.35;;;5.70;55.00;;;;;;20552;6839;295637;-76
2022/12/05 00:21:00;;;;;;;16.63;14.00;;;6.00;54.40;;;;;;20557;6839;318835;-77
2022/12/05 00:23:25;;;;;;;13.03;11.70;;;6.20;53.60;;;;;;20774;6839;118059;-76
2022/12/05 00:25:51;;;;;;;16.52;13.52;;;6.10;53.70;;;;;;20562;6839;309764;-75
2022/12/05 00:28:16;;;;;;;16.00;11.43;;;6.20;53.80;;;;;;20755;6839;118122;-76
2022/12/05 00:30:42;;;;;;;15.15;13.50;;;6.00;53.90;;;;;;20566;6839;310382;-75
2022/12/05 00:33:08;;;;;;;13.73;11.80;;;6.00;54.20;;;;;;20767;6839;117250;-76
2022/12/05 00:35:34;;;;;;;16.40;13.93;;;6.00;54.20;;;;;;20571;6839;307030;-78
2022/12/05 00:37:59;;;;;;;16.30;11.03;;;6.10;54.20;;;;;;20766;6839;121396;-77
2022/12/05 00:40:25;;;;;;;13.90;10.73;;;6.10;54.20;;;;;;20789;6839;117599;-77
2022/12/05 00:42:50;;;;;;;14.23;10.70;;;5.80;54.60;;;;;;20778;6839;119932;-76
2022/12/05 00:45:16;;;;;;;16.00;13.13;;;5.70;55.10;;;;;;20559;6839;338841;-78
2022/12/05 00:47:42;;;;;;;15.23;11.20;;;5.80;55.10;;;;;;20779;6837;118379;-78
2022/12/05 00:50:07;;;;;;;15.13;13.30;;;5.80;55.00;;;;;;20536;6838;336206;-77
2022/12/05 00:52:33;;;;;;;14.70;10.80;;;5.90;54.70;;;;;;20777;6838;117385;-78
2022/12/05 00:54:58;;;;;;;12.87;10.27;;;5.90;54.70;;;;;;20777;6838;118741;-76
2022/12/05 00:57:25;;;;;;;11.53;10.10;;;5.60;55.50;;;;;;20780;6838;120499;-82
2022/12/05 00:59:50;;;;;;;15.10;12.80;;;5.60;55.50;;;;;;20565;6838;306706;-78
2022/12/05 01:02:17;;;;;;;15.27;13.00;;;5.70;55.40;;;;;;20550;6838;308028;-76
2022/12/05 01:04:43;;;;;;;13.93;11.13;;;6.00;54.90;;;;;;20777;6838;119167;-75
2022/12/05 01:07:08;;;;;;;14.63;12.98;;;6.00;54.70;;;;;;20563;6839;307581;-76
2022/12/05 01:09:34;;;;;;;15.48;13.65;;;6.10;54.70;;;;;;20572;6839;336557;-75
2022/12/05 01:12:01;;;;;;;13.03;10.80;;;6.30;54.30;;;;;;20761;6839;119373;-77
2022/12/05 01:14:26;;;;;;;13.47;10.53;;;6.30;54.30;;;;;;20777;6839;117439;-75
2022/12/05 01:16:53;;;;;;;15.37;12.97;;;6.10;54.90;;;;;;20567;6839;283929;-75
2022/12/05 01:19:22;;;;;;;15.53;13.63;;;6.10;55.00;;;;;;20562;6839;278038;-75
2022/12/05 01:21:47;;;;;;;16.27;14.53;;;6.40;54.40;;;;;;20545;6839;338161;-75
2022/12/05 01:24:13;;;;;;;17.65;14.02;;;6.60;54.00;;;;;;20540;6839;307927;-76
2022/12/05 01:26:38;;;;;;;15.20;12.10;;;6.80;53.30;;;;;;20769;6839;118521;-75
2022/12/05 01:29:04;;;;;;;15.63;13.38;;;6.60;53.30;;;;;;20566;6839;278637;-75
2022/12/05 01:31:30;;;;;;;16.73;12.07;;;6.40;54.00;;;;;;20781;6839;118349;-75
2022/12/05 01:33:57;;;;;;;13.67;11.40;;;6.10;54.50;;;;;;20775;6839;121819;-76
2022/12/05 01:36:23;;;;;;;17.27;14.18;;;6.20;55.00;;;;;;20539;6839;309991;-76
2022/12/05 01:38:49;;;;;;;19.33;14.90;;;6.20;55.00;;;;;;20554;6839;310802;-76
2022/12/05 01:41:27;;;;;;;18.20;14.77;;;6.40;54.60;;;;;;20568;6839;280196;-75
2022/12/05 01:44:10;;;;;;;18.87;15.13;;;6.60;54.10;;;;;;20560;6839;277097;-75
2022/12/05 01:46:36;;;;;;;20.27;15.77;;;6.90;53.60;;;;;;20505;6839;322529;-75
2022/12/05 01:49:02;;;;;;;18.17;14.80;;;6.90;53.50;;;;;;20540;6839;277102;-75
2022/12/05 01:51:28;;;;;;;16.23;12.47;;;6.70;53.60;;;;;;20752;6839;117898;-76
2022/12/05 01:53:53;;;;;;;23.80;15.57;;;6.70;53.60;;;;;;20543;6839;306646;-75
2022/12/05 01:56:19;;;;;;;20.73;15.55;;;6.70;54.10;;;;;;20523;6839;307582;-74
2022/12/05 01:58:45;;;;;;;22.43;15.97;;;6.80;53.90;;;;;;20552;6837;278392;-74
2022/12/05 02:01:10;;;;;;;21.98;17.48;;;6.90;53.80;;;;;;20550;6838;308855;-75
2022/12/05 02:03:37;;;;;;;22.43;16.47;;;7.00;53.70;;;;;;20559;6838;307957;-74
2022/12/05 02:06:02;;;;;;;21.13;15.97;;;7.10;53.60;;;;;;20539;6838;276878;-75
2022/12/05 02:08:28;;;;;;;21.25;15.93;;;7.20;53.30;;;;;;20544;6838;309897;-74
2022/12/05 02:10:54;;;;;;;23.10;16.17;;;7.20;53.20;;;;;;20551;6838;278938;-75
2022/12/05 02:13:46;;;;;;;24.10;16.37;;;7.30;53.00;;;;;;20538;6838;306640;-76
2022/12/05 02:16:42;;;;;;;22.50;16.27;;;7.30;53.00;;;;;;20547;6838;308016;-76
2022/12/05 02:19:35;;;;;;;21.73;12.77;;;7.30;52.90;;;;;;20780;6839;117853;-74
2022/12/05 02:22:17;;;;;;;20.62;15.85;;;6.90;53.30;;;;;;20537;6840;341786;-77
2022/12/05 02:25:00;;;;;;;22.63;16.77;;;6.90;54.60;;;;;;20537;6839;311328;-76
2022/12/05 02:27:55;;;;;;;18.63;13.20;;;6.90;54.00;;;;;;20771;6839;117362;-76
2022/12/05 02:30:21;;;;;;;22.17;15.97;;;6.70;54.10;;;;;;20545;6839;309329;-77
2022/12/05 02:33:20;;;;;;;22.35;16.50;;;6.70;54.50;;;;;;20557;6839;307525;-75
2022/12/05 02:35:45;;;;;;;23.15;16.35;;;6.80;54.30;;;;;;20561;6839;324846;-76
2022/12/05 02:38:43;;;;;;;17.17;13.00;;;7.00;54.10;;;;;;20721;6839;143295;-77
2022/12/05 02:41:26;;;;;;;18.37;12.73;;;6.80;54.30;;;;;;20772;6839;121360;-76
2022/12/05 02:43:58;;;;;;;20.40;15.67;;;6.40;55.10;;;;;;20209;6839;306666;-76
2022/12/05 02:46:23;;;;;;;23.12;16.62;;;6.40;55.30;;;;;;20540;6839;301009;-76
2022/12/05 02:48:49;;;;;;;18.10;12.73;;;6.60;54.90;;;;;;20750;6839;117524;-76
2022/12/05 02:51:15;;;;;;;17.23;14.97;;;6.50;54.80;;;;;;20523;6839;278175;-76
2022/12/05 02:53:41;;;;;;;18.67;15.13;;;6.70;54.60;;;;;;20554;6839;306477;-76
2022/12/05 02:56:06;;;;;;;18.77;13.27;;;6.70;54.50;;;;;;20730;6839;119675;-77
2022/12/05 02:58:33;;;;;;;20.10;14.83;;;6.50;54.80;;;;;;20557;6839;306874;-75
2022/12/05 03:00:58;;;;;;;22.02;15.95;;;6.50;54.80;;;;;;20559;6839;278142;-75
2022/12/05 03:03:24;;;;;;;22.53;16.57;;;6.70;54.40;;;;;;20555;6839;310915;-76
2022/12/05 03:05:59;;;;;;;18.47;13.93;;;6.80;53.90;;;;;;20769;6839;117632;-77
2022/12/05 03:08:24;;;;;;;21.23;15.90;;;6.60;54.00;;;;;;20548;6839;280273;-78
2022/12/05 03:10:51;;;;;;;20.43;15.30;;;6.60;54.50;;;;;;20553;6837;310417;-77
2022/12/05 03:13:17;;;;;;;20.07;13.23;;;6.70;54.30;;;;;;20775;6838;117757;-76
2022/12/05 03:15:42;;;;;;;20.77;15.48;;;6.50;54.40;;;;;;20546;6838;306594;-76
2022/12/05 03:18:15;;;;;;;23.17;14.23;;;6.40;54.80;;;;;;20747;6838;121159;-77
2022/12/05 03:20:51;;;;;;;20.17;13.17;;;6.30;54.80;;;;;;20775;6838;119797;-77
2022/12/05 03:23:19;;;;;;;17.90;12.63;;;6.10;55.40;;;;;;20163;6838;122118;-76
2022/12/05 03:26:10;;;;;;;18.57;14.73;;;5.80;56.50;;;;;;20546;6838;321436;-75
2022/12/05 03:28:31;;;;;;;17.53;12.93;;;5.90;56.40;;;;;;20755;6840;117576;-76
2022/12/05 03:30:56;;;;;;;18.83;14.75;;;6.00;56.50;;;;;;20538;6839;277672;-76
2022/12/05 03:33:25;;;;;;;20.47;12.53;;;6.10;56.30;;;;;;20759;6839;117182;-78
2022/12/05 03:35:57;;;;;;;17.50;14.20;;;6.10;56.10;;;;;;20554;6839;277236;-76
2022/12/05 03:38:29;;;;;;;17.17;14.18;;;6.20;56.10;;;;;;20533;6839;307027;-76
2022/12/05 03:40:55;;;;;;;19.20;12.43;;;6.40;55.40;;;;;;20776;6839;117182;-75
2022/12/05 03:43:24;;;;;;;21.73;12.57;;;6.40;55.40;;;;;;20749;6839;117669;-74
2022/12/05 03:46:10;;;;;;;16.80;12.30;;;5.80;57.20;;;;;;20749;6839;118611;-74
2022/12/05 03:48:55;;;;;;;18.85;14.73;;;5.80;56.30;;;;;;20557;6839;307125;-75
2022/12/05 03:51:22;;;;;;;18.17;15.53;;;6.00;56.30;;;;;;20559;6839;277517;-74
2022/12/05 03:53:55;;;;;;;20.10;12.30;;;6.30;55.50;;;;;;20755;6839;118933;-75
2022/12/05 03:56:27;;;;;;;19.90;14.95;;;6.20;55.40;;;;;;20524;6839;336728;-75
2022/12/05 03:58:53;;;;;;;17.50;12.80;;;6.10;55.60;;;;;;20758;6839;117205;-74
2022/12/05 04:01:18;;;;;;;17.52;14.85;;;6.10;55.60;;;;;;20545;6839;336176;-76
2022/12/05 04:03:44;;;;;;;16.35;14.55;;;6.20;56.10;;;;;;20552;6839;336687;-75
2022/12/05 04:06:13;;;;;;;19.37;15.20;;;6.30;55.80;;;;;;20536;6839;341335;-75
2022/12/05 04:08:39;;;;;;;17.17;12.30;;;6.40;55.10;;;;;;20746;6839;121480;-76
2022/12/05 04:11:04;;;;;;;15.47;12.33;;;6.40;55.10;;;;;;20761;6839;117225;-75
2022/12/05 04:13:36;;;;;;;19.25;15.02;;;6.10;55.70;;;;;;20556;6839;296760;-75
2022/12/05 04:19:06;;;;;;;17.20;14.25;;;6.00;55.80;;;;;;20562;6839;336295;-76
2022/12/05 04:21:38;;;;;;;17.97;14.07;;;6.20;55.80;;;;;;20549;6837;307482;-75
2022/12/05 04:27:20;;;;;;;15.00;11.97;;;6.50;54.90;;;;;;20499;6838;117882;-74
2022/12/05 04:29:45;;;;;;;20.37;12.83;;;6.30;54.90;;;;;;20766;6838;118322;-73
2022/12/05 04:32:10;;;;;;;20.25;15.20;;;5.80;55.40;;;;;;20515;6838;336637;-74
2022/12/05 04:34:37;;;;;;;22.20;15.13;;;5.80;55.60;;;;;;20778;6838;117450;-74
2022/12/05 04:37:03;;;;;;;21.90;17.08;;;5.70;55.60;;;;;;20559;6838;279737;-74
2022/12/05 04:39:41;;;;;;;22.10;14.65;;;5.70;55.80;;;;;;20767;6838;117233;-73
2022/12/05 04:42:09;;;;;;;23.40;18.20;;;5.70;55.90;;;;;;20523;6839;307033;-74
2022/12/05 04:44:35;;;;;;;24.45;17.27;;;5.90;55.20;;;;;;20545;6839;337076;-75
2022/12/05 04:47:00;;;;;;;20.47;14.80;;;5.90;55.20;;;;;;20762;6839;117335;-75
2022/12/05 04:49:26;;;;;;;17.07;12.77;;;5.80;55.20;;;;;;20772;6839;117273;-75
2022/12/05 04:51:52;;;;;;;18.97;12.83;;;5.50;55.60;;;;;;20773;6839;123532;-74
2022/12/05 04:54:21;;;;;;;20.95;15.38;;;5.30;56.30;;;;;;20541;6839;277532;-74
2022/12/05 04:56:47;;;;;;;20.33;12.73;;;5.20;56.10;;;;;;20726;6839;120177;-74
2022/12/05 04:59:12;;;;;;;24.00;16.55;;;5.20;56.00;;;;;;20548;6839;279959;-73
2022/12/05 05:01:42;;;;;;;18.97;16.07;;;5.50;55.50;;;;;;20569;6839;277503;-74
2022/12/05 05:04:11;;;;;;;17.10;13.43;;;5.50;55.50;;;;;;20749;6839;121994;-73
2022/12/05 05:06:36;;;;;;;19.57;13.17;;;5.40;55.60;;;;;;20761;6839;117436;-74
2022/12/05 05:09:02;;;;;;;22.00;16.05;;;5.20;56.30;;;;;;20523;6839;306743;-76
2022/12/05 05:11:27;;;;;;;20.60;13.95;;;5.20;56.70;;;;;;20744;6839;117288;-76
2022/12/05 05:13:53;;;;;;;22.45;13.48;;;5.30;56.80;;;;;;20762;6840;121326;-76
2022/12/05 05:16:19;;;;;;;19.57;15.57;;;5.10;57.10;;;;;;20546;6839;307605;-77
2022/12/05 05:18:47;;;;;;;19.73;15.07;;;5.30;57.50;;;;;;20548;6839;280223;-77
2022/12/05 05:21:29;;;;;;;19.53;13.33;;;5.60;57.10;;;;;;20776;6839;117711;-75
2022/12/05 05:23:55;;;;;;;20.85;15.25;;;5.70;56.90;;;;;;20533;6839;276937;-75
2022/12/05 05:26:20;;;;;;;16.62;12.18;;;5.80;57.00;;;;;;20755;6839;120030;-76
2022/12/05 05:28:48;;;;;;;15.18;11.40;;;5.60;57.30;;;;;;20767;6839;116787;-76
2022/12/05 05:31:14;;;;;;;15.00;11.93;;;5.50;57.20;;;;;;20769;6839;117212;-76
2022/12/05 05:33:39;;;;;;;22.37;16.63;;;5.40;57.70;;;;;;20564;6837;307523;-77
2022/12/05 05:36:05;;;;;;;18.37;12.23;;;5.50;57.50;;;;;;20756;6838;118432;-77
2022/12/05 05:38:32;;;;;;;15.20;11.30;;;5.50;57.40;;;;;;20772;6838;118042;-78
2022/12/05 05:40:58;;;;;;;14.13;10.97;;;5.40;57.70;;;;;;20771;6838;117714;-77
2022/12/05 05:43:23;;;;;;;17.00;12.23;;;5.20;58.10;;;;;;20761;6838;117435;-75
2022/12/05 05:45:49;;;;;;;17.27;11.95;;;5.10;58.50;;;;;;20771;6838;119839;-77
2022/12/05 05:48:15;;;;;;;20.07;16.10;;;5.00;58.60;;;;;;20537;6838;313273;-76
2022/12/05 05:50:40;;;;;;;20.83;16.20;;;5.20;58.70;;;;;;20542;6838;307738;-76
2022/12/05 05:53:06;;;;;;;18.93;13.07;;;5.60;58.10;;;;;;20773;6838;117469;-78
2022/12/05 05:55:32;;;;;;;21.08;16.23;;;5.70;57.70;;;;;;20566;6839;306530;-78
2022/12/05 05:57:57;;;;;;;17.52;15.20;;;5.80;57.70;;;;;;20566;6839;277918;-76
2022/12/05 06:00:23;;;;;;;17.10;13.98;;;6.00;57.00;;;;;;20540;6839;276933;-80
2022/12/05 06:02:48;;;;;;;16.83;13.73;;;6.30;56.50;;;;;;20565;6839;309319;-76
2022/12/05 06:05:14;;;;;;;15.67;13.90;;;6.50;56.10;;;;;;20555;6839;305720;-78
2022/12/05 06:07:40;;;;;;;15.30;11.87;;;6.60;55.40;;;;;;20781;6839;116098;-75
2022/12/05 06:10:06;;;;;;;14.63;11.43;;;6.40;55.50;;;;;;20751;6839;118728;-75
2022/12/05 06:12:32;;;;;;;13.83;11.27;;;6.10;56.10;;;;;;20766;6840;115416;-80
2022/12/05 06:14:57;;;;;;;14.98;10.73;;;5.80;56.80;;;;;;20787;6839;117160;-79
2022/12/05 06:17:23;;;;;;;11.80;10.13;;;5.60;57.50;;;;;;20783;6839;117138;-78
2022/12/05 06:19:49;;;;;;;14.63;13.03;;;5.60;58.10;;;;;;20553;6839;280225;-78
2022/12/05 06:22:15;;;;;;;12.57;10.60;;;5.60;58.00;;;;;;20757;6839;118976;-77
2022/12/05 06:24:40;;;;;;;11.50;9.33;;;5.60;57.80;;;;;;20748;6839;117669;-76
2022/12/05 06:27:06;;;;;;;13.93;12.15;;;5.50;58.10;;;;;;20563;6839;307027;-77
2022/12/05 06:29:32;;;;;;;14.17;12.23;;;6.00;57.50;;;;;;20575;6839;277243;-77
2022/12/05 06:31:58;;;;;;;13.60;10.73;;;6.00;57.40;;;;;;20787;6839;119444;-78
2022/12/05 06:34:23;;;;;;;13.48;10.30;;;6.10;57.20;;;;;;20754;6839;117719;-77
2022/12/05 06:36:49;;;;;;;10.27;9.13;;;5.90;57.50;;;;;;20772;6839;119873;-76
2022/12/05 06:39:14;;;;;;;13.67;12.27;;;5.70;57.90;;;;;;20566;6839;307588;-77
2022/12/05 06:41:42;;;;;;;14.07;12.77;;;5.80;57.90;;;;;;20565;6839;310280;-77
2022/12/05 06:44:07;;;;;;;14.70;13.25;;;6.20;57.20;;;;;;20543;6839;337066;-76
2022/12/05 06:46:33;;;;;;;15.80;13.00;;;6.70;55.50;;;;;;20552;6837;308387;-77
2022/12/05 06:48:59;;;;;;;13.93;12.47;;;6.70;55.50;;;;;;20558;6838;309282;-76
2022/12/05 06:51:25;;;;;;;11.33;10.23;;;6.80;54.90;;;;;;20784;6838;117440;-76
2022/12/05 06:53:50;;;;;;;11.33;9.80;;;6.70;55.20;;;;;;20781;6838;117231;-77
2022/12/05 06:56:17;;;;;;;13.50;12.10;;;6.30;56.20;;;;;;20552;6838;278060;-80
2022/12/05 06:58:42;;;;;;;13.33;12.03;;;6.30;56.20;;;;;;20558;6838;277307;-77
2022/12/05 07:03:56;;;;;;;13.07;11.40;;;6.80;55.50;;;;;;20776;6838;118547;-77
2022/12/05 07:06:23;;;;;;;10.83;9.70;;;6.30;56.80;;;;;;20751;6839;122046;-76
2022/12/05 07:08:48;;;;;;;13.60;12.20;;;6.30;56.10;;;;;;20560;6839;309317;-77
2022/12/05 07:11:15;;;;;;;12.40;10.73;;;6.30;56.40;;;;;;20770;6839;117275;-76
2022/12/05 07:13:41;;;;;;;13.43;12.02;;;6.30;56.40;;;;;;20562;6839;337763;-76
2022/12/05 07:16:07;;;;;;;15.37;13.00;;;6.40;56.50;;;;;;20545;6839;309540;-79
2022/12/05 07:18:32;;;;;;;13.73;10.43;;;6.70;56.10;;;;;;20784;6839;117453;-78
2022/12/05 07:20:58;;;;;;;18.50;13.87;;;6.60;55.90;;;;;;20567;6839;283711;-73
2022/12/05 07:23:24;;;;;;;18.40;14.10;;;6.60;55.90;;;;;;20560;6839;306831;-74
2022/12/05 07:25:50;;;;;;;15.23;13.55;;;6.90;54.80;;;;;;20571;6839;277775;-73
2022/12/05 07:28:15;;;;;;;18.37;14.03;;;6.90;54.80;;;;;;20544;6839;306652;-76
2022/12/05 07:30:42;;;;;;;17.30;12.00;;;6.90;54.70;;;;;;20774;6839;117519;-75
2022/12/05 07:33:08;;;;;;;14.30;11.27;;;6.60;55.40;;;;;;20780;6839;119798;-76
2022/12/05 07:35:34;;;;;;;12.73;11.00;;;6.50;55.30;;;;;;20778;6839;117507;-75
2022/12/05 07:37:59;;;;;;;17.30;13.27;;;6.30;55.90;;;;;;20570;6839;307947;-75
2022/12/05 07:40:25;;;;;;;17.63;12.27;;;6.30;56.20;;;;;;20769;6839;117479;-74
2022/12/05 07:42:52;;;;;;;12.45;10.32;;;6.30;56.30;;;;;;20784;6839;119165;-74
2022/12/05 07:45:36;;;;;;;14.33;10.93;;;6.10;56.70;;;;;;20780;6839;119258;-74
2022/12/05 07:48:15;;;;;;;16.47;11.80;;;6.00;57.30;;;;;;20976;6711;120035;-75
2022/12/05 07:50:48;;;;;;;14.57;10.97;;;5.70;58.10;;;;;;20985;6719;116953;-76
2022/12/05 07:53:23;;;;;;;15.77;11.57;;;5.80;58.30;;;;;;20925;6742;117911;-75
2022/12/05 07:55:59;;;;;;;17.60;14.30;;;5.70;58.50;;;;;;20661;6717;335669;-75
2022/12/05 07:58:35;;;;;;;13.40;10.70;;;5.90;58.40;;;;;;20940;6733;119641;-75
2022/12/05 08:01:27;;;;;;;14.13;12.63;;;6.10;58.30;;;;;;20746;6719;339064;-75
2022/12/05 08:03:59;;;;;;;13.70;12.40;;;6.30;58.10;;;;;;20752;6731;296912;-74
2022/12/05 08:06:35;;;;;;;13.40;12.10;;;6.70;57.20;;;;;;20639;6707;330429;-75
2022/12/05 08:09:11;;;;;;;12.53;10.80;;;7.00;56.10;;;;;;21063;6694;117259;-74
2022/12/05 08:11:46;;;;;;;13.60;12.20;;;7.00;56.40;;;;;;20842;6694;303391;-74
2022/12/05 08:14:22;;;;;;;13.63;12.33;;;7.10;56.30;;;;;;20759;6706;276369;-75
2022/12/05 08:16:58;;;;;;;13.90;12.60;;;7.50;55.50;;;;;;20646;6759;294551;-75
2022/12/05 08:19:34;;;;;;;10.60;9.60;;;7.50;54.90;;;;;;21034;6703;116882;-75
2022/12/05 08:22:10;;;;;;;12.83;9.57;;;7.40;55.20;;;;;;20999;6718;119752;-75
2022/12/05 08:24:45;;;;;;;10.43;8.47;;;7.10;55.90;;;;;;20959;6726;117121;-75
2022/12/05 08:27:21;;;;;;;9.43;8.43;;;6.90;56.50;;;;;;21070;6699;116702;-74
2022/12/05 08:29:56;;;;;;;9.60;8.70;;;6.70;57.00;;;;;;21089;6692;117036;-75
2022/12/05 08:32:32;;;;;;;12.60;11.30;;;6.50;57.50;;;;;;20884;6685;331326;-74
2022/12/05 08:35:08;;;;;;;10.10;9.10;;;6.70;57.40;;;;;;21025;6690;116789;-74
2022/12/05 08:37:43;;;;;;;9.27;8.37;;;6.80;57.30;;;;;;21077;6690;118895;-73
2022/12/05 08:40:19;;;;;;;9.03;8.13;;;6.70;57.60;;;;;;20989;6712;140403;-74
2022/12/05 08:42:54;;;;;;;11.30;10.27;;;6.60;58.10;;;;;;20755;6729;277061;-73
2022/12/05 08:45:31;;;;;;;10.40;9.03;;;7.00;57.40;;;;;;20905;6722;116288;-74
2022/12/05 08:48:06;;;;;;;10.57;9.23;;;7.00;57.40;;;;;;20904;6739;119110;-74
2022/12/05 08:50:42;;;;;;;12.00;10.80;;;7.10;57.50;;;;;;20718;6739;309166;-73
2022/12/05 08:53:18;;;;;;;10.83;9.73;;;7.10;57.20;;;;;;20926;6730;121243;-73
2022/12/05 08:55:54;;;;;;;11.77;10.57;;;7.10;57.90;;;;;;20845;6730;119412;-71
2022/12/05 08:58:30;;;;;;;14.07;12.87;;;7.10;57.60;;;;;;20718;6731;303098;-71
2022/12/05 09:01:06;;;;;;;10.83;10.03;;;7.30;57.10;;;;;;20690;6750;277667;-71
2022/12/05 09:03:41;;;;;;;10.93;10.00;;;7.70;56.00;;;;;;20706;6736;279774;-71
2022/12/05 09:06:18;;;;;;;11.17;10.17;;;8.00;54.90;;;;;;20639;6721;313181;-71
2022/12/05 09:08:54;;;;;;;9.40;8.43;;;8.20;54.90;;;;;;21033;6704;116716;-71
2022/12/05 09:11:30;;;;;;;9.93;9.13;;;8.20;54.20;;;;;;20819;6703;304984;-71
2022/12/05 09:14:06;;;;;;;9.52;8.82;;;8.20;54.10;;;;;;20796;6703;310793;-70
2022/12/05 09:16:41;;;;;;;12.07;11.07;;;8.40;53.60;;;;;;20798;6736;121259;-70
2022/12/05 09:19:17;;;;;;;11.27;10.23;;;8.20;53.80;;;;;;21009;6710;117514;-70
2022/12/05 09:21:52;;;;;;;10.88;9.98;;;8.00;54.60;;;;;;20797;6712;333559;-70
2022/12/05 09:24:28;;;;;;;9.17;8.37;;;7.90;54.50;;;;;;20962;6768;116959;-70
2022/12/05 09:27:04;;;;;;;9.15;8.35;;;7.90;54.80;;;;;;20767;6725;325712;-73
2022/12/05 09:29:39;;;;;;;10.23;8.50;;;8.00;54.50;;;;;;20938;6725;116713;-73
2022/12/05 09:32:15;;;;;;;7.93;7.23;;;7.90;54.70;;;;;;20817;6746;117553;-73
2022/12/05 09:34:50;;;;;;;9.95;9.15;;;7.70;55.30;;;;;;20733;6724;337336;-73
2022/12/05 09:37:26;;;;;;;8.83;8.03;;;7.70;55.30;;;;;;20990;6709;116572;-74
2022/12/05 09:40:02;;;;;;;10.98;9.98;;;7.70;55.40;;;;;;20691;6742;275067;-73
2022/12/05 09:42:37;;;;;;;8.93;8.10;;;7.80;55.40;;;;;;20857;6759;117614;-73
2022/12/05 09:45:26;;;;;;;8.60;7.80;;;7.80;55.60;;;;;;20844;6747;116719;-71
2022/12/05 09:48:15;;;;;;;8.73;7.90;;;7.60;56.00;;;;;;20872;6747;150538;-73
2022/12/05 09:51:02;;;;;;;10.47;9.53;;;7.40;56.50;;;;;;20773;6709;301877;-74
2022/12/05 09:53:37;;;;;;;11.00;8.73;;;7.60;56.10;;;;;;20940;6724;116870;-73
2022/12/05 09:56:26;;;;;;;10.57;9.60;;;7.60;56.10;;;;;;20547;6739;328507;-72
2022/12/05 09:59:02;;;;;;;10.23;9.32;;;7.80;55.70;;;;;;20672;6751;279300;-74
2022/12/05 10:01:41;;;;;;;11.07;10.17;;;8.10;54.90;;;;;;20713;6736;301273;-74
2022/12/05 10:04:23;;;;;;;12.27;11.13;;;8.60;53.70;;;;;;20696;6739;277984;-74
2022/12/05 10:07:22;;;;;;;12.07;10.97;;;8.60;53.70;;;;;;20713;6744;327161;-73
2022/12/05 10:10:04;;;;;;;13.97;10.97;;;8.80;53.40;;;;;;20940;6744;116933;-72
2022/12/05 10:12:59;;;;;;;10.40;9.40;;;8.50;53.90;;;;;;20886;6751;117786;-73
2022/12/05 10:15:44;;;;;;;9.63;8.73;;;8.20;54.80;;;;;;20639;6810;117066;-73
2022/12/05 10:18:43;;;;;;;9.50;8.60;;;7.90;55.50;;;;;;20884;6744;117013;-73
2022/12/05 10:21:19;;;;;;;11.05;10.10;;;7.70;56.10;;;;;;20674;6750;306351;-73
2022/12/05 10:23:54;;;;;;;9.10;8.30;;;7.90;55.90;;;;;;20879;6751;118267;-73
2022/12/05 10:26:33;;;;;;;10.17;9.33;;;7.90;55.80;;;;;;20469;6760;342015;-74
2022/12/05 10:29:29;;;;;;;10.45;9.50;;;8.00;55.90;;;;;;20787;6714;305845;-74
2022/12/05 10:32:19;;;;;;;8.77;7.60;;;8.20;55.20;;;;;;20218;6808;118656;-83
2022/12/05 10:34:56;;;;;;;7.67;7.07;;;7.90;55.80;;;;;;20868;6743;116686;-74
2022/12/05 10:37:31;;;;;;;8.20;7.37;;;7.90;55.80;;;;;;20913;6739;118343;-75
2022/12/05 10:40:08;;;;;;;8.50;7.80;;;7.70;56.40;;;;;;20897;6739;123256;-75
2022/12/05 10:43:43;;;;;;;9.77;8.97;;;7.60;56.90;;;;;;20705;6739;307058;-74
2022/12/05 10:46:19;;;;;;;9.85;9.15;;;7.80;57.10;;;;;;20596;6724;278672;-74
2022/12/05 10:48:54;;;;;;;9.70;9.00;;;8.30;56.10;;;;;;20793;6709;306388;-74
2022/12/05 10:51:30;;;;;;;10.00;9.20;;;8.60;55.50;;;;;;20759;6724;279360;-73
2022/12/05 10:54:19;;;;;;;8.33;7.60;;;8.80;55.00;;;;;;20955;6719;119928;-75
2022/12/05 10:56:54;;;;;;;8.70;7.83;;;8.70;55.20;;;;;;20749;6790;117029;-72
2022/12/05 10:59:43;;;;;;;9.00;8.13;;;8.30;55.80;;;;;;20974;6719;115710;-73
2022/12/05 11:02:23;;;;;;;9.33;8.60;;;8.10;56.50;;;;;;20751;6720;280351;-73
2022/12/05 11:05:00;;;;;;;9.77;8.97;;;8.20;56.80;;;;;;20719;6719;306164;-73
2022/12/05 11:07:41;;;;;;;7.57;7.03;;;8.60;56.60;;;;;;20985;6719;116636;-72
2022/12/05 11:10:24;;;;;;;7.90;6.97;;;8.60;56.70;;;;;;20967;6719;126800;-74
2022/12/05 11:12:59;;;;;;;7.90;7.13;;;8.50;57.40;;;;;;20979;6719;116711;-72
2022/12/05 11:15:35;;;;;;;7.17;6.57;;;8.40;57.80;;;;;;20866;6719;116722;-73
2022/12/05 11:18:24;;;;;;;6.83;6.33;;;8.30;58.10;;;;;;20949;6719;116960;-72
2022/12/05 11:20:59;;;;;;;8.17;7.50;;;8.20;58.30;;;;;;20770;6719;305094;-71
2022/12/05 11:23:36;;;;;;;8.68;8.07;;;8.50;57.50;;;;;;20716;6729;305933;-71
2022/12/05 11:26:33;;;;;;;8.77;8.07;;;8.80;55.90;;;;;;20624;6714;298573;-72
2022/12/05 11:29:29;;;;;;;8.63;8.02;;;9.10;55.00;;;;;;20740;6729;276710;-72
2022/12/05 11:32:05;;;;;;;8.07;6.80;;;9.40;53.80;;;;;;20943;6725;120687;-73
2022/12/05 11:34:44;;;;;;;7.40;6.70;;;9.10;54.10;;;;;;20871;6802;116790;-75
2022/12/05 11:37:23;;;;;;;6.97;6.37;;;8.80;54.80;;;;;;20963;6725;120225;-73
2022/12/05 11:39:59;;;;;;;7.40;6.70;;;8.50;55.50;;;;;;20949;6736;116987;-72
2022/12/05 11:42:44;;;;;;;7.93;7.33;;;8.20;56.10;;;;;;20741;6721;337093;-72
2022/12/05 11:45:22;;;;;;;8.20;7.40;;;8.30;56.00;;;;;;20949;6712;116444;-73
2022/12/05 11:48:05;;;;;;;7.27;6.67;;;8.40;56.20;;;;;;20979;6721;116517;-73
2022/12/05 11:50:49;;;;;;;6.40;5.90;;;8.20;56.60;;;;;;20329;6783;116702;-75
2022/12/05 11:53:39;;;;;;;6.60;6.10;;;8.10;57.10;;;;;;21014;6712;116678;-74
2022/12/05 11:56:38;;;;;;;7.67;7.17;;;8.30;57.20;;;;;;20681;6697;306599;-75
2022/12/05 11:59:34;;;;;;;7.10;6.60;;;8.30;57.20;;;;;;20768;6716;307817;-74
2022/12/05 12:02:26;;;;;;;7.17;6.57;;;8.80;56.20;;;;;;20723;6727;317933;-74
2022/12/05 12:05:19;;;;;;;6.75;6.25;;;9.30;55.30;;;;;;20765;6706;338331;-74
2022/12/05 12:08:17;;;;;;;6.67;6.23;;;9.60;54.20;;;;;;20763;6722;289450;-74
2022/12/05 12:11:16;;;;;;;6.30;5.90;;;10.20;51.60;;;;;;20753;6721;304983;-75
2022/12/05 12:14:05;;;;;;;5.85;5.53;;;10.20;51.60;;;;;;20725;6731;290839;-76
2022/12/05 12:17:08;;;;;;;5.90;5.40;;;10.50;51.00;;;;;;20484;6742;307335;-74
2022/12/05 12:20:09;;;;;;;5.27;4.80;;;10.60;50.20;;;;;;20960;6725;116750;-74
2022/12/05 12:23:08;;;;;;;4.83;4.43;;;10.30;50.90;;;;;;20414;6770;118138;-75
2022/12/05 12:26:13;;;;;;;5.40;5.00;;;10.00;51.90;;;;;;20680;6710;337340;-74
2022/12/05 12:28:59;;;;;;;4.97;4.53;;;10.00;50.50;;;;;;21010;6710;117147;-73
2022/12/05 12:32:01;;;;;;;5.00;4.50;;;9.90;52.30;;;;;;20233;6779;118747;-73
2022/12/05 12:34:40;;;;;;;4.67;4.30;;;9.40;53.60;;;;;;20876;6739;117469;-73
2022/12/05 12:37:27;;;;;;;5.73;5.03;;;9.40;53.60;;;;;;20692;6754;289552;-74
2022/12/05 12:40:13;;;;;;;5.27;4.97;;;9.50;52.70;;;;;;20959;6721;117341;-74
2022/12/05 12:43:21;;;;;;;5.78;5.37;;;9.50;52.80;;;;;;20782;6716;333822;-74
2022/12/05 12:46:07;;;;;;;6.10;5.60;;;9.50;52.00;;;;;;20616;6712;308483;-76
2022/12/05 12:49:22;;;;;;;15.20;13.62;;;9.90;51.50;;;;;;20755;6725;308906;-74
2022/12/05 12:51:57;;;;;;;6.50;6.03;;;10.00;49.80;;;;;;21002;6727;116840;-75
2022/12/05 12:54:43;;;;;;;6.93;5.17;;;9.80;51.60;;;;;;20952;6721;116079;-75
2022/12/05 12:57:52;;;;;;;6.55;6.10;;;9.60;51.60;;;;;;20104;6777;325675;-74
2022/12/05 13:00:51;;;;;;;5.60;5.10;;;9.50;52.00;;;;;;21012;6706;116665;-76
2022/12/05 13:03:30;;;;;;;6.70;6.20;;;9.40;52.40;;;;;;20748;6774;319789;-75
2022/12/05 13:06:13;;;;;;;7.00;6.50;;;9.60;52.80;;;;;;20806;6726;117278;-76
2022/12/05 13:08:50;;;;;;;7.10;6.50;;;9.60;52.50;;;;;;20783;6701;286192;-76
2022/12/05 13:11:26;;;;;;;8.60;7.90;;;9.70;51.90;;;;;;20812;6709;275735;-73
2022/12/05 13:14:04;;;;;;;8.67;8.07;;;10.10;50.60;;;;;;20802;6698;310432;-74
2022/12/05 13:16:39;;;;;;;6.80;6.00;;;10.30;50.00;;;;;;20888;6711;117186;-75